Time;durP1;ratioP1;P1;durP2;ratioP2;P2;SDS_P1;SDS_P2;PMS_P1;PMS_P2;Temp;Humidity;BMP_temperature;BMP_pressure;BME280_temperature;BME280_humidity;BME280_pressure;Samples;Min_cycle;Max_cycle;Signal;HPM_P1;HPM_P2
2021/11/20 00:00:12;;;;;;;12.18;10.98;;;;;;;8.45;87.31;97091.03;1796689;80;21058;-84
2021/11/20 00:02:40;;;;;;;11.93;10.58;;;;;;;8.49;87.24;97092.86;1795981;80;21055;-84
2021/11/20 00:05:07;;;;;;;10.18;8.95;;;;;;;8.49;86.87;97087.20;1796580;80;21430;-84
2021/11/20 00:07:33;;;;;;;10.93;9.83;;;;;;;8.50;86.92;97090.59;1796623;80;21034;-84
2021/11/20 00:09:59;;;;;;;9.98;8.60;;;;;;;8.51;86.94;97084.45;1796765;80;21031;-84
2021/11/20 00:12:28;;;;;;;8.88;7.95;;;;;;;8.51;86.74;97077.98;1796915;80;20982;-84
2021/11/20 00:14:54;;;;;;;9.78;8.78;;;;;;;8.48;86.75;97073.92;1796886;80;21007;-84
2021/11/20 00:17:21;;;;;;;10.45;9.38;;;;;;;8.49;86.48;97079.91;1797194;80;20962;-84
2021/11/20 00:19:47;;;;;;;9.88;8.88;;;;;;;8.49;86.30;97069.55;1796995;80;20935;-84
2021/11/20 00:22:20;;;;;;;9.80;8.30;;;;;;;8.52;86.27;97070.53;1797037;80;21027;-83
2021/11/20 00:24:56;;;;;;;9.63;8.63;;;;;;;8.52;86.17;97071.83;1797010;80;20913;-84
2021/11/20 00:27:25;;;;;;;10.18;9.18;;;;;;;8.52;86.15;97077.82;1797046;80;21009;-83
2021/11/20 00:30:11;;;;;;;10.78;9.68;;;;;;;8.52;86.23;97075.23;1797125;80;21010;-84
2021/11/20 00:32:34;;;;;;;9.30;8.38;;;;;;;8.50;86.14;97080.23;1795244;80;21341;-84
2021/11/20 00:35:06;;;;;;;10.00;8.90;;;;;;;8.52;85.87;97075.23;1782046;79;20993;-84
2021/11/20 00:37:31;;;;;;;9.60;8.70;;;;;;;8.55;86.01;97073.63;1729344;83;21384;-84
2021/11/20 00:39:57;;;;;;;8.00;7.20;;;;;;;8.57;85.67;97077.36;1732574;83;21079;-84
2021/11/20 00:42:23;;;;;;;9.00;8.10;;;;;;;8.55;85.28;97071.03;1759212;82;20993;-84
2021/11/20 00:44:49;;;;;;;9.33;8.40;;;;;;;8.54;85.55;97072.48;1759229;82;20981;-84
2021/11/20 00:47:16;;;;;;;10.93;9.23;;;;;;;8.54;85.37;97072.00;1759016;82;20970;-83
2021/11/20 00:49:42;;;;;;;9.20;7.75;;;;;;;8.53;85.37;97070.38;1759156;81;20938;-84
2021/11/20 00:52:08;;;;;;;9.68;7.85;;;;;;;8.53;85.35;97069.08;1759185;82;21016;-83
2021/11/20 00:54:34;;;;;;;7.50;6.80;;;;;;;8.53;84.99;97072.97;1759089;81;21060;-84
2021/11/20 00:57:00;;;;;;;8.53;7.25;;;;;;;8.54;85.16;97072.48;1754847;81;21136;-84
2021/11/20 00:59:26;;;;;;;8.23;7.42;;;;;;;8.52;85.06;97070.05;1734280;83;21428;-83
2021/11/20 01:01:56;;;;;;;7.75;6.95;;;;;;;8.53;84.97;97070.86;1734255;83;21045;-83
2021/11/20 01:04:24;;;;;;;6.08;5.42;;;;;;;8.54;84.82;97083.66;1734484;83;21044;-84
2021/11/20 01:06:49;;;;;;;6.45;5.72;;;;;;;8.55;84.22;97063.27;1734171;83;21073;-84
2021/11/20 01:09:20;;;;;;;6.35;5.75;;;;;;;8.55;84.25;97065.86;1734305;83;21072;-84
2021/11/20 01:11:51;;;;;;;7.20;6.30;;;;;;;8.55;84.21;97073.63;1734403;83;21680;-83
2021/11/20 01:14:18;;;;;;;6.20;5.60;;;;;;;8.35;84.04;97051.00;1733755;83;20954;-84
2021/11/20 01:16:46;;;;;;;8.98;7.17;;;;;;;8.53;84.04;97082.03;1733887;83;21095;-84
2021/11/20 01:19:11;;;;;;;6.42;5.83;;;;;;;8.53;83.98;97076.05;1734211;83;20962;-84
2021/11/20 01:21:37;;;;;;;8.25;6.30;;;;;;;8.54;84.13;97073.78;1734575;83;21059;-84
2021/11/20 01:24:05;;;;;;;5.78;4.87;;;;;;;8.54;83.52;97068.12;1734396;83;20978;-84
2021/11/20 01:26:31;;;;;;;6.42;5.83;;;;;;;8.54;83.14;97070.70;1734131;83;21432;-84
2021/11/20 01:28:57;;;;;;;7.65;6.83;;;;;;;8.33;83.33;97044.32;1734073;83;21029;-84
2021/11/20 01:31:26;;;;;;;8.65;6.75;;;;;;;8.52;83.18;97073.13;1733777;83;21479;-84
2021/11/20 01:33:52;;;;;;;7.60;6.47;;;;;;;8.52;83.34;97075.23;1751991;80;21009;-84
2021/11/20 01:36:26;;;;;;;6.45;5.83;;;;;;;8.53;83.24;97071.67;1752529;81;21041;-84
2021/11/20 01:38:53;;;;;;;7.50;6.80;;;;;;;8.56;83.25;97073.14;1770458;81;20978;-84
2021/11/20 01:41:20;;;;;;;7.35;6.65;;;;;;;8.53;83.08;97069.08;1770452;81;21333;-84
2021/11/20 01:43:54;;;;;;;8.90;7.58;;;;;;;8.52;82.96;97065.35;1770605;81;21002;-84
2021/11/20 01:46:25;;;;;;;10.60;9.58;;;;;;;8.50;83.32;97056.92;1769202;81;21033;-84
2021/11/20 01:49:05;;;;;;;8.38;7.58;;;;;;;8.49;83.29;97047.53;1770446;81;20989;-84
2021/11/20 01:51:39;;;;;;;9.38;7.60;;;;;;;8.48;82.86;97044.61;1770137;81;21028;-84
2021/11/20 01:54:40;;;;;;;8.68;7.87;;;;;;;8.48;82.79;97045.91;1769584;81;21053;-84
2021/11/20 01:57:35;;;;;;;7.90;6.58;;;;;;;8.47;83.07;97036.03;1769068;80;20966;-84
2021/11/20 02:00:31;;;;;;;8.65;7.10;;;;;;;8.46;82.46;97027.94;1762002;81;21006;-84
2021/11/20 02:03:18;;;;;;;8.78;7.10;;;;;;;8.42;82.54;97018.83;1760933;81;21014;-84
2021/11/20 02:05:59;;;;;;;8.30;7.50;;;;;;;8.41;82.69;97020.60;1762414;81;21005;-84
2021/11/20 02:08:39;;;;;;;7.40;6.70;;;;;;;8.42;82.80;97018.83;1746000;82;21026;-84
2021/11/20 02:11:10;;;;;;;6.97;6.22;;;;;;;8.45;82.59;97009.45;1746174;82;21022;-84
2021/11/20 02:13:36;;;;;;;7.50;6.67;;;;;;;8.47;82.43;97013.20;1715955;82;21052;-84
2021/11/20 02:16:10;;;;;;;6.00;5.40;;;;;;;8.47;82.12;97012.72;1746141;82;21071;-84
2021/11/20 02:18:42;;;;;;;6.35;5.75;;;;;;;8.46;82.01;97012.40;1745352;82;21345;-84
2021/11/20 02:21:50;;;;;;;6.30;5.70;;;;;;;8.45;82.16;97008.64;1746266;82;21417;-84
2021/11/20 02:24:16;;;;;;;6.25;5.65;;;;;;;8.46;82.22;96995.56;1745897;82;20971;-84
2021/11/20 02:26:42;;;;;;;6.20;5.60;;;;;;;8.50;81.93;97001.24;1746071;82;21014;-84
2021/11/20 02:29:10;;;;;;;8.00;5.53;;;;;;;8.51;81.78;97008.05;1745844;82;21011;-84
2021/11/20 02:31:42;;;;;;;4.87;4.47;;;;;;;8.51;81.66;97010.64;1745825;82;21078;-84
2021/11/20 02:34:07;;;;;;;;;;;;;;;8.49;81.79;97002.21;1748607;82;20940;-84
2021/11/20 02:36:34;;;;;;;6.53;5.58;;;;;;;8.48;81.63;97001.88;1745609;82;20186;-84
2021/11/20 02:39:16;;;;;;;7.40;5.62;;;;;;;8.45;81.71;97001.67;1745846;82;21055;-83
2021/11/20 02:41:44;;;;;;;6.28;4.72;;;;;;;8.45;81.53;96998.28;1745900;82;21407;-84
2021/11/20 02:44:10;;;;;;;5.72;4.70;;;;;;;8.46;81.49;96994.72;1745641;82;21015;-84
2021/11/20 02:46:38;;;;;;;5.78;5.22;;;;;;;8.46;81.46;96990.38;1745710;82;20972;-84
2021/11/20 02:49:06;;;;;;;5.47;4.83;;;;;;;8.49;81.71;96991.84;1745787;82;20999;-83
2021/11/20 02:51:36;;;;;;;6.10;5.03;;;;;;;8.48;81.35;96983.27;1745470;82;21021;-84
2021/11/20 02:54:12;;;;;;;7.58;5.55;;;;;;;8.46;81.66;96989.09;1745946;81;21087;-84
2021/11/20 02:56:46;;;;;;;6.92;5.15;;;;;;;8.45;81.58;96988.73;1745747;82;21030;-84
2021/11/20 02:59:12;;;;;;;5.33;4.80;;;;;;;8.45;81.70;96990.03;1790634;80;21026;-84
2021/11/20 03:01:39;;;;;;;6.00;5.03;;;;;;;8.48;81.64;96989.74;1798438;80;21007;-84
2021/11/20 03:04:11;;;;;;;5.80;5.30;;;;;;;8.50;81.66;96983.11;1791124;80;20967;-84
2021/11/20 03:06:36;;;;;;;5.28;4.78;;;;;;;8.48;81.76;96986.34;1763176;81;21105;-84
2021/11/20 03:09:08;;;;;;;6.08;5.55;;;;;;;8.50;81.50;96999.47;1765524;81;21385;-84
2021/11/20 03:11:34;;;;;;;5.83;5.20;;;;;;;8.47;81.89;96992.00;1765536;81;21001;-84
2021/11/20 03:14:04;;;;;;;6.92;5.17;;;;;;;8.46;81.86;96994.72;1765472;81;21329;-84
2021/11/20 03:16:28;;;;;;;7.92;5.17;;;;;;;8.46;81.91;96996.02;1797886;80;21331;-84
2021/11/20 03:18:53;;;;;;;6.28;4.80;;;;;;;8.47;81.98;96988.60;1798549;80;20998;-84
2021/11/20 03:21:19;;;;;;;6.15;5.55;;;;;;;8.47;82.10;96990.71;1798383;80;21022;-84
2021/11/20 03:23:49;;;;;;;4.92;4.47;;;;;;;8.45;82.29;96989.21;1798451;80;21400;-84
2021/11/20 03:26:15;;;;;;;5.85;5.37;;;;;;;8.44;82.35;96989.70;1798451;80;20939;-84
2021/11/20 03:28:41;;;;;;;5.95;5.37;;;;;;;8.42;82.32;96985.16;1798410;80;20998;-83
2021/11/20 03:31:06;;;;;;;6.62;5.33;;;;;;;8.41;82.31;96985.64;1798357;80;21006;-84
2021/11/20 03:33:33;;;;;;;7.62;4.75;;;;;;;8.42;82.23;96984.67;1798626;80;20956;-84
2021/11/20 03:35:59;;;;;;;5.40;4.90;;;;;;;8.45;82.33;96990.03;1798597;80;21378;-84
2021/11/20 03:38:25;;;;;;;6.10;5.20;;;;;;;8.43;82.32;96991.48;1798390;80;21003;-84
2021/11/20 03:40:51;;;;;;;6.90;5.55;;;;;;;8.45;82.45;97000.87;1798402;80;21484;-84
2021/11/20 03:43:17;;;;;;;7.22;5.17;;;;;;;8.43;82.39;96990.66;1798442;80;21002;-84
2021/11/20 03:45:43;;;;;;;5.78;5.20;;;;;;;8.44;82.37;97002.64;1798506;80;20963;-84
2021/11/20 03:48:09;;;;;;;5.58;4.90;;;;;;;8.47;82.24;97002.84;1798555;80;21014;-84
2021/11/20 03:50:36;;;;;;;6.85;6.15;;;;;;;8.49;81.96;97003.02;1798408;80;21129;-84
2021/11/20 03:53:02;;;;;;;7.00;5.95;;;;;;;8.49;81.95;97003.02;1798315;80;20991;-84
2021/11/20 03:55:35;;;;;;;15.53;10.15;;;;;;;8.49;82.19;97012.09;1798475;80;21006;-83
2021/11/20 03:58:01;;;;;;;7.33;6.47;;;;;;;8.51;82.13;97013.22;1797679;80;21378;-84
2021/11/20 04:00:32;;;;;;;8.73;7.85;;;;;;;8.48;82.29;97009.17;1795116;80;21019;-84
2021/11/20 04:02:58;;;;;;;6.45;5.78;;;;;;;8.45;82.26;97015.92;1795305;80;21016;-84
2021/11/20 04:05:24;;;;;;;7.85;6.58;;;;;;;8.46;82.24;97017.58;1779911;79;21361;-84
2021/11/20 04:07:50;;;;;;;9.75;8.40;;;;;;;8.49;82.20;97005.61;1757618;81;21031;-84
2021/11/20 04:10:18;;;;;;;8.88;7.97;;;;;;;8.51;82.25;96995.09;1762478;81;20994;-84
2021/11/20 04:12:44;;;;;;;7.87;6.42;;;;;;;8.52;82.27;97007.08;1762416;81;21049;-84
2021/11/20 04:15:11;;;;;;;8.35;7.53;;;;;;;8.50;82.36;97002.53;1762556;81;21364;-84
2021/11/20 04:17:37;;;;;;;6.47;5.90;;;;;;;8.48;82.42;97013.05;1762359;81;20971;-84
2021/11/20 04:20:08;;;;;;;8.30;6.95;;;;;;;8.49;82.38;97012.09;1762418;81;21090;-84
2021/11/20 04:22:34;;;;;;;8.43;6.22;;;;;;;8.48;82.47;97010.46;1762381;81;20962;-84
2021/11/20 04:24:59;;;;;;;7.85;6.92;;;;;;;8.53;82.40;97023.75;1762566;81;20978;-84
2021/11/20 04:27:25;;;;;;;8.25;6.85;;;;;;;8.52;82.59;97033.79;1762408;81;21003;-84
2021/11/20 04:29:51;;;;;;;7.60;6.80;;;;;;;8.53;82.77;97031.53;1762667;81;21002;-84
2021/11/20 04:32:17;;;;;;;10.32;8.15;;;;;;;8.51;82.86;97020.99;1762306;81;21452;-84
2021/11/20 04:34:42;;;;;;;9.53;8.58;;;;;;;8.48;83.13;97042.03;1762263;81;21050;-84
2021/11/20 04:37:08;;;;;;;8.60;7.45;;;;;;;8.49;83.32;97039.77;1762057;81;21058;-84
2021/11/20 04:39:35;;;;;;;8.60;7.80;;;;;;;8.48;83.28;97035.55;1762534;81;21341;-84
2021/11/20 04:42:01;;;;;;;11.03;8.50;;;;;;;8.47;83.44;97040.41;1762496;81;21061;-84
2021/11/20 04:44:27;;;;;;;9.25;8.38;;;;;;;8.47;83.79;97033.92;1762515;81;20982;-83
2021/11/20 04:46:53;;;;;;;10.55;8.68;;;;;;;8.49;83.97;97035.87;1762727;81;21006;-84
2021/11/20 04:49:18;;;;;;;10.60;9.60;;;;;;;8.48;84.25;97041.55;1762504;81;20998;-84
2021/11/20 04:51:44;;;;;;;12.07;10.58;;;;;;;8.42;84.27;97045.53;1762574;81;21128;-84
2021/11/20 04:54:10;;;;;;;11.12;10.03;;;;;;;8.36;84.67;97031.91;1762641;81;20970;-84
2021/11/20 04:56:36;;;;;;;10.40;9.20;;;;;;;8.36;84.81;97037.09;1762822;81;21087;-84
2021/11/20 04:59:02;;;;;;;9.53;8.53;;;;;;;8.32;85.12;97039.62;1762871;81;21444;-84
2021/11/20 05:01:28;;;;;;;11.97;10.38;;;;;;;8.29;85.34;97052.84;1763197;81;21456;-84
2021/11/20 05:03:54;;;;;;;9.45;8.63;;;;;;;8.27;85.53;97047.49;1762923;80;21081;-84
2021/11/20 05:06:23;;;;;;;11.12;9.98;;;;;;;8.28;85.74;97056.88;1762423;81;21025;-84
2021/11/20 05:08:48;;;;;;;11.85;10.65;;;;;;;8.29;86.01;97058.51;1769460;81;20953;-84
2021/11/20 05:11:14;;;;;;;12.50;11.10;;;;;;;8.28;86.21;97056.88;1797354;80;21052;-84
2021/11/20 05:13:40;;;;;;;13.60;12.20;;;;;;;8.25;86.33;97063.18;1798086;80;20997;-84
2021/11/20 05:16:06;;;;;;;18.77;16.77;;;;;;;8.21;86.64;97063.64;1798236;80;21000;-84
2021/11/20 05:18:32;;;;;;;14.35;12.85;;;;;;;8.18;86.73;97058.28;1798437;80;20939;-84
2021/11/20 05:20:59;;;;;;;11.22;9.98;;;;;;;8.13;86.95;97065.22;1798325;80;20968;-84
2021/11/20 05:23:27;;;;;;;11.28;10.03;;;;;;;8.12;87.16;97066.15;1798241;80;21391;-84
2021/11/20 05:25:53;;;;;;;11.22;10.15;;;;;;;8.14;87.26;97063.44;1798118;80;20988;-84
2021/11/20 05:28:19;;;;;;;11.68;10.48;;;;;;;8.13;87.39;97058.74;1797903;80;21324;-84
2021/11/20 05:30:46;;;;;;;11.45;10.35;;;;;;;8.12;87.37;97067.92;1797810;80;21016;-84
2021/11/20 05:33:23;;;;;;;12.98;11.00;;;;;;;8.16;87.63;97067.17;1797276;80;21020;-84
2021/11/20 05:35:49;;;;;;;12.58;11.33;;;;;;;8.15;87.63;97063.77;1797388;80;20989;-83
2021/11/20 05:38:17;;;;;;;11.70;10.50;;;;;;;8.12;87.66;97066.63;1797272;80;21324;-84
2021/11/20 05:40:43;;;;;;;10.90;9.83;;;;;;;8.11;88.04;97064.52;1797556;80;21012;-84
2021/11/20 05:43:13;;;;;;;10.95;9.83;;;;;;;8.06;87.93;97060.28;1797582;80;21303;-84
2021/11/20 05:45:42;;;;;;;12.55;11.25;;;;;;;8.04;88.06;97060.11;1797579;80;20937;-84
2021/11/20 05:48:08;;;;;;;11.73;10.58;;;;;;;8.01;88.18;97063.00;1797552;80;21020;-84
2021/11/20 05:50:35;;;;;;;12.23;11.03;;;;;;;8.02;88.18;97070.61;1797346;80;21008;-84
2021/11/20 05:53:01;;;;;;;10.23;9.23;;;;;;;8.06;88.33;97065.46;1797266;80;21008;-84
2021/11/20 05:55:30;;;;;;;12.03;10.82;;;;;;;8.04;88.22;97064.80;1797528;80;20969;-84
2021/11/20 05:57:57;;;;;;;13.43;10.95;;;;;;;8.05;88.38;97068.20;1797577;80;21000;-84
2021/11/20 06:00:27;;;;;;;11.78;10.68;;;;;;;8.02;88.46;97076.27;1797887;80;20945;-84
2021/11/20 06:02:55;;;;;;;12.93;11.55;;;;;;;8.08;88.75;97080.36;1797561;80;21096;-84
2021/11/20 06:05:21;;;;;;;10.95;9.90;;;;;;;8.10;88.75;97082.31;1797627;80;20965;-84
2021/11/20 06:07:46;;;;;;;11.08;10.05;;;;;;;8.09;88.71;97101.39;1797534;80;20937;-84
2021/11/20 06:10:12;;;;;;;12.30;11.20;;;;;;;8.09;88.64;97092.81;1797423;80;20985;-84
2021/11/20 06:12:38;;;;;;;13.72;12.33;;;;;;;8.08;88.54;97088.61;1797332;80;21040;-84
2021/11/20 06:15:05;;;;;;;11.38;9.80;;;;;;;8.07;88.84;97079.22;1797436;80;20980;-84
2021/11/20 06:17:31;;;;;;;12.63;10.72;;;;;;;8.04;88.68;97091.16;1797464;80;21414;-84
2021/11/20 06:19:57;;;;;;;12.80;10.00;;;;;;;8.04;88.69;97092.45;1797209;80;20977;-84
2021/11/20 06:22:24;;;;;;;10.25;9.08;;;;;;;8.05;88.77;97096.67;1797415;80;20999;-84
2021/11/20 06:24:51;;;;;;;9.10;8.03;;;;;;;8.02;88.84;97100.86;1798829;80;20997;-83
2021/11/20 06:27:17;;;;;;;9.15;8.20;;;;;;;8.00;88.98;97099.71;1797302;80;20981;-84
2021/11/20 06:29:43;;;;;;;11.20;9.20;;;;;;;7.99;89.21;97101.97;1797046;80;20996;-83
2021/11/20 06:32:10;;;;;;;19.75;15.88;;;;;;;7.96;89.32;97097.06;1797098;80;21055;-83
2021/11/20 06:34:36;;;;;;;14.33;12.20;;;;;;;7.97;89.31;97101.31;1797484;80;20968;-84
2021/11/20 06:37:02;;;;;;;12.00;10.85;;;;;;;7.97;89.44;97101.31;1797370;80;20952;-84
2021/11/20 06:39:28;;;;;;;11.93;10.65;;;;;;;8.01;89.48;97104.41;1797605;80;21056;-84
2021/11/20 06:41:54;;;;;;;12.05;10.80;;;;;;;8.05;89.49;97115.60;1797399;80;21371;-84
2021/11/20 06:44:21;;;;;;;12.15;11.03;;;;;;;8.08;89.39;97126.95;1772992;80;20973;-84
2021/11/20 06:46:46;;;;;;;13.45;12.05;;;;;;;8.09;89.41;97129.87;1797507;80;20997;-84
2021/11/20 06:49:12;;;;;;;12.58;11.33;;;;;;;8.14;89.38;97133.33;1797293;80;20992;-84
2021/11/20 06:51:38;;;;;;;12.82;11.55;;;;;;;8.19;89.36;97137.57;1797163;80;21024;-83
2021/11/20 06:54:05;;;;;;;12.88;11.55;;;;;;;8.22;89.26;97141.64;1797251;80;20993;-84
2021/11/20 06:56:43;;;;;;;13.22;11.78;;;;;;;8.20;89.13;97137.91;1797305;80;20996;-84
2021/11/20 07:01:35;;;;;;;18.45;14.95;;;;;;;8.19;89.43;97141.94;1796576;80;21500;-83
2021/11/20 07:04:06;;;;;;;14.80;13.30;;;;;;;8.18;89.46;97155.36;1796614;80;21097;-84
2021/11/20 07:06:52;;;;;;;12.13;10.70;;;;;;;8.22;89.50;97159.27;1764904;80;21024;-83
2021/11/20 07:09:18;;;;;;;12.18;10.72;;;;;;;8.24;89.29;97157.34;1797008;80;21029;-83
2021/11/20 07:11:44;;;;;;;11.88;10.68;;;;;;;8.26;89.22;97156.72;1797059;80;20985;-84
2021/11/20 07:14:10;;;;;;;13.70;11.85;;;;;;;8.28;89.16;97153.98;1797020;80;22035;-84
2021/11/20 07:16:36;;;;;;;14.98;11.55;;;;;;;8.30;89.28;97158.07;1796985;80;20949;-84
2021/11/20 07:19:02;;;;;;;12.75;11.45;;;;;;;8.35;89.25;97157.65;1796979;80;20937;-83
2021/11/20 07:21:28;;;;;;;14.20;12.80;;;;;;;8.38;89.27;97154.75;1796823;80;20949;-84
2021/11/20 07:23:55;;;;;;;14.98;12.93;;;;;;;8.37;89.18;97157.83;1796625;80;20953;-84
2021/11/20 07:26:22;;;;;;;14.53;13.08;;;;;;;8.39;89.24;97161.08;1796907;80;21000;-84
2021/11/20 07:28:49;;;;;;;13.88;12.55;;;;;;;8.43;89.23;97157.70;1796933;80;20941;-83
2021/11/20 07:31:15;;;;;;;13.75;12.33;;;;;;;8.47;89.19;97152.58;1797053;80;21043;-84
2021/11/20 07:33:41;;;;;;;14.03;11.60;;;;;;;8.48;89.01;97149.03;1791634;80;21049;-85
2021/11/20 07:36:10;;;;;;;13.03;11.73;;;;;;;8.53;88.83;97148.56;1771781;80;20985;-83
2021/11/20 07:38:40;;;;;;;11.63;10.53;;;;;;;8.57;88.90;97142.12;1796728;80;20969;-84
2021/11/20 07:41:06;;;;;;;13.93;12.53;;;;;;;8.62;88.87;97150.23;1795515;80;21049;-84
2021/11/20 07:43:32;;;;;;;15.15;13.62;;;;;;;8.64;88.72;97145.75;1796726;80;20993;-84
2021/11/20 07:45:57;;;;;;;13.38;11.97;;;;;;;8.63;88.59;97147.53;1796779;80;20990;-84
2021/11/20 07:48:25;;;;;;;14.38;12.60;;;;;;;8.62;88.59;97149.79;1796909;80;21021;-84
2021/11/20 07:50:52;;;;;;;14.53;12.18;;;;;;;8.59;88.45;97154.44;1796864;80;21097;-84
2021/11/20 07:53:18;;;;;;;12.55;11.28;;;;;;;8.60;88.38;97150.39;1796830;80;20957;-84
2021/11/20 07:55:46;;;;;;;12.40;11.10;;;;;;;8.64;88.37;97151.74;1796843;80;21020;-84
2021/11/20 07:58:11;;;;;;;12.50;11.03;;;;;;;8.69;88.45;97157.27;1797034;80;21016;-84
2021/11/20 08:00:38;;;;;;;11.70;10.60;;;;;;;8.75;88.23;97151.15;1796862;80;21388;-84
2021/11/20 08:03:05;;;;;;;14.25;12.85;;;;;;;8.76;88.04;97150.99;1768267;80;21048;-84
2021/11/20 08:05:31;;;;;;;13.00;11.70;;;;;;;8.77;88.24;97143.55;1797041;80;21016;-83
2021/11/20 08:07:57;;;;;;;12.20;11.03;;;;;;;8.76;88.03;97144.52;1796900;80;20985;-84
2021/11/20 08:10:25;;;;;;;12.80;11.60;;;;;;;8.78;88.08;97143.06;1797292;80;21010;-83
2021/11/20 08:12:51;;;;;;;12.03;10.40;;;;;;;8.83;88.18;97146.84;1797083;80;21032;-83
2021/11/20 08:15:17;;;;;;;15.23;13.65;;;;;;;8.89;87.76;97148.83;1796999;80;20953;-83
2021/11/20 08:17:43;;;;;;;15.38;13.78;;;;;;;8.94;87.66;97149.66;1796742;80;21001;-83
2021/11/20 08:20:11;;;;;;;13.45;12.13;;;;;;;8.99;87.77;97144.84;1796872;80;21004;-84
2021/11/20 08:22:38;;;;;;;14.43;12.05;;;;;;;8.97;87.56;97139.81;1797159;80;21036;-83
2021/11/20 08:25:05;;;;;;;9.80;8.68;;;;;;;8.97;87.57;97140.30;1797136;80;20977;-83
2021/11/20 08:27:31;;;;;;;13.28;10.60;;;;;;;8.99;87.22;97136.59;1796975;80;20987;-83
2021/11/20 08:29:57;;;;;;;13.18;11.38;;;;;;;9.03;87.14;97147.45;1797036;80;21011;-83
2021/11/20 08:32:23;;;;;;;12.63;11.43;;;;;;;9.08;87.17;97142.61;1796643;80;21032;-83
2021/11/20 08:34:48;;;;;;;12.00;9.53;;;;;;;9.15;87.40;97148.83;1792536;78;21032;-84
2021/11/20 08:37:15;;;;;;;9.88;8.68;;;;;;;9.18;87.04;97132.14;1772265;80;20930;-84
2021/11/20 08:39:40;;;;;;;12.80;10.78;;;;;;;9.21;86.86;97127.45;1758821;82;20993;-84
2021/11/20 08:42:07;;;;;;;12.25;10.90;;;;;;;9.22;87.03;97130.38;1759039;81;21021;-84
2021/11/20 08:44:32;;;;;;;10.72;9.35;;;;;;;9.25;87.00;97131.84;1759017;82;20991;-83
2021/11/20 08:46:58;;;;;;;11.78;10.18;;;;;;;9.27;86.75;97129.91;1758836;81;21005;-84
2021/11/20 08:49:24;;;;;;;10.88;9.75;;;;;;;9.29;86.37;97130.10;1759030;82;20981;-84
2021/11/20 08:51:52;;;;;;;11.90;10.65;;;;;;;9.29;86.21;97135.29;1758936;82;21498;-84
2021/11/20 08:54:18;;;;;;;12.70;10.63;;;;;;;9.29;86.37;97137.07;1759280;82;20942;-84
2021/11/20 08:56:45;;;;;;;9.78;8.78;;;;;;;9.26;86.05;97142.55;1759038;81;20987;-84
2021/11/20 08:59:15;;;;;;;11.97;10.45;;;;;;;9.21;86.29;97145.61;1758936;82;21049;-83
2021/11/20 09:01:48;;;;;;;11.90;10.70;;;;;;;9.21;86.31;97147.39;1759094;82;20987;-84
2021/11/20 09:04:20;;;;;;;10.35;9.30;;;;;;;9.24;86.63;97138.00;1759033;81;21004;-84
2021/11/20 09:06:54;;;;;;;9.35;8.45;;;;;;;9.25;86.58;97142.22;1759195;82;21352;-84
2021/11/20 09:09:35;;;;;;;14.93;13.30;;;;;;;9.24;86.50;97146.59;1759424;81;21016;-85
2021/11/20 09:12:06;;;;;;;13.22;11.83;;;;;;;9.21;86.53;97144.80;1759035;82;21044;-84
2021/11/20 09:14:56;;;;;;;8.68;7.80;;;;;;;9.17;86.77;97146.89;1759304;82;21017;-84
2021/11/20 09:17:23;;;;;;;12.25;10.93;;;;;;;9.10;86.74;97147.16;1759353;82;20950;-84
2021/11/20 09:19:49;;;;;;;11.63;10.40;;;;;;;9.08;86.95;97148.28;1759425;82;21028;-84
2021/11/20 09:22:15;;;;;;;13.80;11.03;;;;;;;9.06;87.03;97144.55;1759384;81;21040;-84
2021/11/20 09:24:43;;;;;;;14.23;12.73;;;;;;;9.09;87.23;97143.42;1759535;82;20982;-84
2021/11/20 09:27:09;;;;;;;14.68;13.18;;;;;;;9.14;87.41;97137.31;1759094;81;20989;-84
2021/11/20 09:29:35;;;;;;;13.15;11.08;;;;;;;9.15;87.50;97137.64;1759363;82;20992;-84
2021/11/20 09:32:01;;;;;;;14.07;12.58;;;;;;;9.11;87.30;97136.30;1759423;81;20993;-83
2021/11/20 09:34:27;;;;;;;12.93;11.63;;;;;;;9.03;87.51;97140.98;1779014;79;21356;-84
2021/11/20 09:36:56;;;;;;;12.75;11.43;;;;;;;9.00;87.65;97139.50;1779737;80;20981;-84
2021/11/20 09:39:24;;;;;;;14.35;12.95;;;;;;;9.01;87.80;97132.06;1797486;80;20953;-84
2021/11/20 09:42:08;;;;;;;10.50;9.50;;;;;;;9.04;87.95;97132.23;1797305;80;21495;-84
2021/11/20 09:44:39;;;;;;;11.85;10.20;;;;;;;9.09;87.91;97131.27;1795476;80;21024;-84
2021/11/20 09:47:28;;;;;;;10.90;9.73;;;;;;;9.12;88.00;97132.77;1797625;80;21016;-84
2021/11/20 09:49:53;;;;;;;12.23;10.93;;;;;;;9.11;87.98;97122.89;1797097;80;20974;-84
2021/11/20 09:52:19;;;;;;;14.13;12.65;;;;;;;9.10;88.07;97121.23;1797786;80;20973;-84
2021/11/20 09:54:46;;;;;;;13.90;12.23;;;;;;;9.07;88.29;97122.84;1797609;80;20962;-84
2021/11/20 09:57:20;;;;;;;14.43;12.95;;;;;;;9.06;88.38;97124.30;1797668;80;21043;-84
2021/11/20 09:59:55;;;;;;;14.33;12.82;;;;;;;9.01;88.37;97124.28;1799004;80;21012;-84
2021/11/20 10:02:49;;;;;;;12.28;10.98;;;;;;;9.00;88.66;97125.73;1800801;80;21145;-84
2021/11/20 10:05:28;;;;;;;11.97;10.80;;;;;;;8.93;88.62;97122.92;1782470;80;20949;-84
2021/11/20 10:08:12;;;;;;;11.63;10.43;;;;;;;8.93;88.94;97124.22;1800380;80;21012;-84
2021/11/20 10:10:49;;;;;;;10.98;9.88;;;;;;;8.94;89.30;97121.95;1800246;80;21335;-84
2021/11/20 10:13:21;;;;;;;10.82;9.73;;;;;;;8.97;89.36;97121.67;1800356;80;20961;-84
2021/11/20 10:16:07;;;;;;;11.57;10.48;;;;;;;9.01;89.46;97130.77;1800398;80;20945;-82
2021/11/20 10:18:42;;;;;;;10.55;9.45;;;;;;;9.00;89.52;97125.73;1799490;80;21000;-82
2021/11/20 10:21:31;;;;;;;12.98;11.68;;;;;;;8.93;89.36;97125.52;1795696;80;20941;-84
2021/11/20 10:24:17;;;;;;;13.22;11.93;;;;;;;8.87;89.64;97131.32;1799986;80;20969;-84
2021/11/20 10:27:11;;;;;;;14.60;11.88;;;;;;;8.79;89.85;97136.47;1799613;80;20977;-84
2021/11/20 10:30:01;;;;;;;12.95;10.60;;;;;;;8.79;90.08;97131.28;1799637;80;21008;-84
2021/11/20 10:32:42;;;;;;;14.68;13.08;;;;;;;8.78;90.36;97127.04;1799675;80;21418;-84
2021/11/20 10:35:22;;;;;;;14.80;13.30;;;;;;;8.78;90.38;97124.93;1796282;78;21330;-84
2021/11/20 10:37:54;;;;;;;15.18;13.60;;;;;;;8.78;90.48;97111.48;1769423;80;21024;-84
2021/11/20 10:40:32;;;;;;;15.90;14.23;;;;;;;8.78;90.39;97115.86;1757764;81;21035;-84
2021/11/20 10:43:03;;;;;;;16.77;15.08;;;;;;;8.81;90.69;97111.21;1761237;81;21096;-84
2021/11/20 10:45:53;;;;;;;14.98;13.43;;;;;;;8.89;90.93;97113.83;1761962;81;20985;-84
2021/11/20 10:48:42;;;;;;;15.80;14.07;;;;;;;8.99;91.17;97114.55;1762064;81;20982;-83
2021/11/20 10:51:34;;;;;;;16.57;14.87;;;;;;;9.11;91.19;97102.14;1761803;81;21415;-84
2021/11/20 10:54:45;;;;;;;15.05;13.10;;;;;;;9.15;91.08;97102.64;1761610;81;21068;-84
2021/11/20 10:57:55;;;;;;;14.00;12.37;;;;;;;9.16;90.77;97098.59;1691361;81;21091;-83
2021/11/20 11:00:42;;;;;;;15.20;13.55;;;;;;;9.16;90.73;97091.30;1761498;81;21411;-84
2021/11/20 11:03:35;;;;;;;16.40;13.10;;;;;;;9.12;90.78;97088.21;1761115;81;21447;-84
2021/11/20 11:06:41;;;;;;;17.15;15.35;;;;;;;9.10;90.48;97082.83;1761398;81;21017;-84
2021/11/20 11:09:48;;;;;;;12.75;11.45;;;;;;;9.06;90.52;97078.93;1761196;81;21411;-84
2021/11/20 11:12:23;;;;;;;12.15;10.93;;;;;;;9.07;90.67;97086.55;1760960;81;21439;-84
2021/11/20 11:15:28;;;;;;;13.90;12.53;;;;;;;9.07;90.67;97081.36;1760976;81;20961;-84
2021/11/20 11:18:23;;;;;;;16.60;14.87;;;;;;;9.07;90.72;97084.44;1761108;81;21366;-84
2021/11/20 11:21:34;;;;;;;12.53;10.93;;;;;;;9.07;90.89;97072.78;1760427;81;21005;-84
2021/11/20 11:24:35;;;;;;;14.15;12.63;;;;;;;9.06;90.96;97064.19;1760852;81;21459;-84
2021/11/20 11:27:15;;;;;;;15.03;13.55;;;;;;;9.05;90.94;97057.38;1761050;81;20949;-83
2021/11/20 11:30:13;;;;;;;14.55;12.25;;;;;;;9.10;91.20;97061.61;1760897;81;21073;-84
2021/11/20 11:32:43;;;;;;;18.70;16.80;;;;;;;9.12;91.04;97054.51;1760366;81;21096;-83
2021/11/20 11:35:30;;;;;;;12.58;11.25;;;;;;;9.10;90.80;97053.02;1760681;81;20982;-84
2021/11/20 11:38:33;;;;;;;14.73;13.15;;;;;;;9.06;90.94;97055.11;1705868;84;21075;-84
2021/11/20 11:41:07;;;;;;;14.75;12.93;;;;;;;9.07;90.94;97048.14;1752013;81;20984;-83
2021/11/20 11:43:54;;;;;;;15.63;13.90;;;;;;;9.06;90.97;97051.23;1754748;81;21023;-83
2021/11/20 11:46:57;;;;;;;19.00;15.83;;;;;;;9.03;91.19;97049.76;1759007;81;21044;-84
2021/11/20 11:49:49;;;;;;;21.37;19.07;;;;;;;9.03;91.35;97045.88;1760606;81;20987;-83
2021/11/20 11:52:50;;;;;;;20.10;17.98;;;;;;;9.06;91.44;97050.41;1760578;81;21051;-83